createdAt,value
2019-03-10T00:02:02.780Z,19.45
2019-03-10T00:04:23.565Z,14.40
2019-03-10T00:06:44.317Z,21.40
2019-03-10T00:09:06.034Z,15.88
2019-03-10T00:11:28.177Z,19.50
2019-03-10T00:13:48.841Z,13.68
2019-03-10T00:16:09.577Z,15.95
2019-03-10T00:18:30.166Z,17.82
2019-03-10T00:20:51.043Z,18.42
2019-03-10T00:23:11.770Z,17.12
2019-03-10T00:25:32.380Z,15.50
2019-03-10T00:27:53.290Z,13.98
2019-03-10T00:30:16.254Z,20.30
2019-03-10T00:32:37.942Z,14.90
2019-03-10T00:34:59.149Z,26.75
2019-03-10T00:37:19.848Z,18.32
2019-03-10T00:39:43.427Z,15.65
2019-03-10T00:42:07.932Z,20.60
2019-03-10T00:44:49.191Z,16.73
2019-03-10T00:47:31.153Z,12.07
2019-03-10T00:50:40.829Z,15.45
2019-03-10T00:53:01.837Z,16.32
2019-03-10T00:55:22.463Z,14.95
2019-03-10T00:57:43.552Z,17.00
2019-03-10T01:00:07.194Z,15.03
2019-03-10T01:02:31.735Z,14.25
2019-03-10T01:04:56.535Z,17.82
2019-03-10T01:07:17.061Z,13.30
2019-03-10T01:09:37.732Z,17.90
2019-03-10T01:11:58.442Z,17.10
2019-03-10T01:14:19.135Z,21.07
2019-03-10T01:16:42.054Z,17.07
2019-03-10T01:19:02.971Z,13.20
2019-03-10T01:21:23.791Z,13.13
2019-03-10T01:23:44.260Z,13.43
2019-03-10T01:26:04.891Z,14.95
2019-03-10T01:28:25.553Z,15.50
2019-03-10T01:30:49.199Z,16.87
2019-03-10T01:33:21.569Z,14.78
2019-03-10T01:35:42.694Z,18.52
2019-03-10T01:38:03.288Z,15.20
2019-03-10T01:40:23.918Z,14.38
2019-03-10T01:42:44.649Z,12.65
2019-03-10T01:45:07.975Z,12.70
2019-03-10T01:47:28.581Z,17.15
2019-03-10T01:49:49.420Z,12.60
2019-03-10T01:52:09.940Z,15.00
2019-03-10T01:54:30.533Z,13.60
2019-03-10T01:56:51.083Z,12.53
2019-03-10T01:59:13.184Z,15.05
2019-03-10T02:01:33.807Z,13.35
2019-03-10T02:03:54.413Z,12.18
2019-03-10T02:06:15.002Z,11.05
2019-03-10T02:08:35.625Z,10.68
2019-03-10T02:10:56.214Z,11.78
2019-03-10T02:13:16.897Z,10.15
2019-03-10T02:15:37.716Z,16.40
2019-03-10T02:17:58.394Z,17.42
2019-03-10T02:20:19.069Z,13.60
2019-03-10T02:22:39.641Z,14.60
2019-03-10T02:25:00.524Z,15.25
2019-03-10T02:27:21.051Z,12.63
2019-03-10T02:29:41.571Z,10.65
2019-03-10T02:32:04.905Z,9.73
2019-03-10T02:34:25.624Z,11.38
2019-03-10T02:36:46.266Z,14.23
2019-03-10T02:39:08.952Z,15.45
2019-03-10T02:41:30.588Z,11.85
2019-03-10T02:43:52.063Z,11.80
2019-03-10T02:46:12.853Z,9.73
2019-03-10T02:48:33.328Z,9.73
2019-03-10T02:50:53.931Z,15.72
2019-03-10T02:53:14.526Z,13.45
2019-03-10T02:55:35.127Z,10.55
2019-03-10T02:57:55.757Z,12.70
2019-03-10T03:00:16.424Z,12.23
2019-03-10T03:02:37.206Z,9.13
2019-03-10T03:04:57.854Z,15.78
2019-03-10T03:07:18.435Z,13.83
2019-03-10T03:09:38.991Z,9.80
2019-03-10T03:11:59.465Z,15.18
2019-03-10T03:14:24.179Z,7.33
2019-03-10T03:16:44.801Z,10.18
2019-03-10T03:19:05.639Z,17.85
2019-03-10T03:21:26.221Z,16.52
2019-03-10T03:23:46.897Z,14.23
2019-03-10T03:26:07.546Z,12.30
2019-03-10T03:28:28.078Z,15.63
2019-03-10T03:30:48.672Z,13.00
2019-03-10T03:33:09.313Z,10.08
2019-03-10T03:35:50.329Z,11.80
2019-03-10T03:38:10.975Z,10.60
2019-03-10T03:40:32.439Z,12.58
2019-03-10T03:42:53.016Z,10.23
2019-03-10T03:45:13.681Z,11.73
2019-03-10T03:47:34.293Z,14.73
2019-03-10T03:49:54.913Z,10.88
2019-03-10T03:52:15.730Z,9.38
2019-03-10T03:54:36.360Z,18.00
2019-03-10T03:56:57.107Z,14.47
2019-03-10T03:59:17.790Z,12.25
2019-03-10T04:01:42.726Z,11.05
2019-03-10T04:04:03.318Z,14.93
2019-03-10T04:06:23.932Z,14.38
2019-03-10T04:08:44.792Z,14.38
2019-03-10T04:11:05.597Z,12.88
2019-03-10T04:13:26.179Z,12.30
2019-03-10T04:15:46.838Z,14.60
2019-03-10T04:18:07.355Z,11.22
2019-03-10T04:20:35.773Z,12.10
2019-03-10T04:22:56.402Z,11.43
2019-03-10T04:25:17.357Z,12.40
2019-03-10T04:27:37.979Z,10.55
2019-03-10T04:29:58.548Z,10.68
2019-03-10T04:32:19.298Z,13.08
2019-03-10T04:34:40.075Z,14.05
2019-03-10T04:37:00.637Z,13.05
2019-03-10T04:39:21.215Z,15.45
2019-03-10T04:41:41.831Z,16.32
2019-03-10T04:44:02.553Z,12.23
2019-03-10T04:46:23.177Z,10.78
2019-03-10T04:48:43.747Z,12.93
2019-03-10T04:51:04.435Z,12.58
2019-03-10T04:53:25.287Z,11.80
2019-03-10T04:55:50.992Z,15.18
2019-03-10T04:58:13.179Z,10.63
2019-03-10T05:00:34.916Z,17.90
2019-03-10T05:02:55.540Z,12.98
2019-03-10T05:05:16.232Z,14.03
2019-03-10T05:07:36.671Z,10.70
2019-03-10T05:09:57.472Z,14.87
2019-03-10T05:12:18.073Z,13.53
2019-03-10T05:14:38.558Z,13.45
2019-03-10T05:16:59.362Z,11.28
2019-03-10T05:19:21.699Z,15.45
2019-03-10T05:21:41.989Z,10.13
2019-03-10T05:24:05.009Z,11.60
2019-03-10T05:28:44.894Z,16.82
2019-03-10T05:31:05.505Z,15.90
2019-03-10T05:33:26.126Z,11.33
2019-03-10T05:35:46.717Z,14.43
2019-03-10T05:38:07.380Z,11.35
2019-03-10T05:40:27.962Z,12.05
2019-03-10T05:42:48.639Z,10.98
2019-03-10T05:45:09.496Z,13.08
2019-03-10T05:47:29.949Z,10.28
2019-03-10T05:49:50.436Z,12.65
2019-03-10T05:52:10.895Z,19.37
2019-03-10T05:54:31.590Z,12.28
2019-03-10T05:56:52.178Z,10.23
2019-03-10T05:59:12.758Z,9.85
2019-03-10T06:01:33.432Z,13.00
2019-03-10T06:03:54.021Z,10.23
2019-03-10T06:06:14.733Z,13.72
2019-03-10T06:08:37.305Z,13.50
2019-03-10T06:10:58.626Z,10.37
2019-03-10T06:13:18.587Z,12.90
2019-03-10T06:15:39.451Z,17.05
2019-03-10T06:18:00.057Z,13.60
2019-03-10T06:20:20.578Z,9.88
2019-03-10T06:22:41.247Z,14.50
2019-03-10T06:25:01.825Z,12.37
2019-03-10T06:27:22.340Z,14.05
2019-03-10T06:29:42.887Z,11.90
2019-03-10T06:32:04.582Z,12.75
2019-03-10T06:34:25.241Z,13.65
2019-03-10T06:36:48.622Z,14.23
2019-03-10T06:39:09.331Z,12.03
2019-03-10T06:41:31.339Z,12.05
2019-03-10T06:43:51.966Z,12.60
2019-03-10T06:46:12.687Z,10.58
2019-03-10T06:48:33.288Z,12.73
2019-03-10T06:50:53.944Z,12.82
2019-03-10T06:53:17.357Z,13.72
2019-03-10T06:55:44.193Z,12.78
2019-03-10T06:58:24.065Z,13.78
2019-03-10T07:00:44.889Z,15.08
2019-03-10T07:03:05.520Z,11.33
2019-03-10T07:05:26.283Z,15.32
2019-03-10T07:07:47.074Z,16.50
2019-03-10T07:10:10.330Z,13.58
2019-03-10T07:14:49.761Z,8.93
2019-03-10T07:17:10.381Z,9.93
2019-03-10T07:19:30.328Z,13.08
2019-03-10T07:21:50.232Z,10.05
2019-03-10T07:24:10.580Z,11.90
2019-03-10T07:26:32.476Z,9.00
2019-03-10T07:28:54.377Z,9.80
2019-03-10T07:31:22.382Z,9.10
2019-03-10T07:33:47.065Z,10.50
2019-03-10T07:36:14.710Z,8.60
2019-03-10T07:38:36.964Z,12.30
2019-03-10T07:40:58.998Z,9.27
2019-03-10T07:43:24.019Z,10.10
2019-03-10T07:45:54.681Z,9.30
2019-03-10T07:48:25.787Z,9.57
2019-03-10T07:50:47.706Z,11.90
2019-03-10T07:53:18.643Z,10.80
2019-03-10T07:55:40.593Z,11.10
2019-03-10T07:58:17.561Z,10.17
2019-03-10T08:00:51.786Z,9.83
2019-03-10T08:03:13.787Z,12.73
2019-03-10T08:05:35.666Z,9.73
2019-03-10T08:08:00.321Z,11.37
2019-03-10T08:10:39.657Z,17.40
2019-03-10T08:13:01.464Z,11.33
2019-03-10T08:15:24.450Z,10.40
2019-03-10T08:18:02.982Z,11.07
2019-03-10T08:20:50.804Z,10.33
2019-03-10T08:23:12.826Z,12.83
2019-03-10T08:25:49.801Z,11.57
2019-03-10T08:28:17.581Z,10.03
2019-03-10T08:30:54.336Z,12.23
2019-03-10T08:33:22.420Z,11.53
2019-03-10T08:36:00.863Z,11.03
2019-03-10T08:38:22.769Z,12.40
2019-03-10T08:40:47.610Z,9.27
2019-03-10T08:43:21.708Z,10.83
2019-03-10T08:45:59.138Z,11.18
2019-03-10T08:48:30.529Z,13.65
2019-03-10T08:50:58.281Z,9.18
2019-03-10T08:53:20.034Z,8.55
2019-03-10T08:55:57.938Z,11.43
2019-03-10T08:58:25.493Z,10.82
2019-03-10T09:01:05.409Z,13.33
2019-03-10T09:03:30.519Z,10.33
2019-03-10T09:05:53.491Z,9.83
2019-03-10T09:08:34.678Z,11.77
2019-03-10T09:10:59.263Z,12.47
2019-03-10T09:13:29.644Z,12.70
2019-03-10T09:16:07.819Z,10.43
2019-03-10T09:18:32.592Z,7.97
2019-03-10T09:20:55.117Z,10.97
2019-03-10T09:23:18.183Z,7.77
2019-03-10T09:25:43.209Z,6.78
2019-03-10T09:28:04.804Z,8.10
2019-03-10T09:30:26.781Z,7.73
2019-03-10T09:32:48.654Z,8.47
2019-03-10T09:35:16.598Z,8.63
2019-03-10T09:37:38.598Z,8.33
2019-03-10T09:40:03.659Z,10.93
2019-03-10T09:42:41.743Z,12.03
2019-03-10T09:48:11.774Z,10.97
2019-03-10T09:50:39.218Z,12.43
2019-03-10T09:53:08.502Z,12.53
2019-03-10T09:55:46.940Z,12.03
2019-03-10T09:58:11.623Z,10.27
2019-03-10T10:00:39.782Z,9.80
2019-03-10T10:03:04.401Z,16.00
2019-03-10T10:05:32.032Z,8.70
2019-03-10T10:08:11.062Z,11.97
2019-03-10T10:10:33.958Z,10.37
2019-03-10T10:13:04.765Z,9.07
2019-03-10T10:15:32.576Z,11.80
2019-03-10T10:18:00.568Z,11.88
2019-03-10T10:20:31.823Z,12.83
2019-03-10T10:22:55.941Z,9.33
2019-03-10T10:25:33.881Z,13.08
2019-03-10T10:28:00.965Z,13.22
2019-03-10T10:30:39.401Z,12.70
2019-03-10T10:33:05.367Z,10.27
2019-03-10T10:35:45.487Z,9.67
2019-03-10T10:38:23.388Z,10.50
2019-03-10T10:40:52.132Z,11.97
2019-03-10T10:43:14.381Z,10.17
2019-03-10T10:45:36.336Z,12.10
2019-03-10T10:48:01.589Z,13.47
2019-03-10T10:50:26.452Z,10.48
2019-03-10T10:53:05.205Z,8.70
2019-03-10T10:55:30.603Z,11.95
2019-03-10T10:57:53.790Z,8.75
2019-03-10T11:00:20.116Z,9.40
2019-03-10T11:02:57.767Z,11.10
2019-03-10T11:05:19.545Z,11.83
2019-03-10T11:07:41.345Z,11.70
2019-03-10T11:10:21.173Z,12.13
2019-03-10T11:12:52.152Z,12.90
2019-03-10T11:15:16.984Z,9.73
2019-03-10T11:17:38.873Z,10.50
2019-03-10T11:20:00.773Z,7.30
2019-03-10T11:22:24.513Z,11.13
2019-03-10T11:24:52.163Z,7.80
2019-03-10T11:27:22.998Z,9.17
2019-03-10T11:30:00.614Z,10.40
2019-03-10T11:32:22.879Z,8.57
2019-03-10T11:34:50.502Z,9.30
2019-03-10T11:37:30.696Z,7.80
2019-03-10T11:40:05.280Z,9.60
2019-03-10T11:42:33.029Z,9.40
2019-03-10T11:44:55.042Z,7.57
2019-03-10T11:47:17.350Z,9.30
2019-03-10T11:49:53.129Z,9.28
2019-03-10T11:52:20.575Z,8.38
2019-03-10T11:54:51.343Z,8.13
2019-03-10T11:57:25.440Z,5.67
2019-03-10T11:59:53.410Z,8.87
2019-03-10T12:02:16.763Z,8.33
2019-03-10T12:04:58.823Z,6.03
2019-03-10T12:07:29.611Z,5.92
2019-03-10T12:09:49.657Z,7.58
2019-03-10T12:12:09.763Z,6.85
2019-03-10T12:14:29.926Z,8.68
2019-03-10T12:16:50.065Z,7.03
2019-03-10T12:19:09.946Z,9.10
2019-03-10T12:21:30.274Z,7.70
2019-03-10T12:23:50.597Z,8.40
2019-03-10T12:26:10.751Z,9.17
2019-03-10T12:28:31.262Z,7.03
2019-03-10T12:30:51.487Z,7.23
2019-03-10T12:33:11.993Z,7.90
2019-03-10T12:35:34.748Z,7.93
2019-03-10T12:37:54.766Z,5.55
2019-03-10T12:40:19.653Z,9.03
2019-03-10T12:42:40.258Z,8.23
2019-03-10T12:47:32.498Z,5.77
2019-03-10T12:49:52.891Z,11.27
2019-03-10T12:52:13.170Z,6.63
2019-03-10T12:54:33.508Z,6.53
2019-03-10T12:56:53.742Z,9.13
2019-03-10T12:59:14.139Z,6.33
2019-03-10T13:01:36.564Z,8.57
2019-03-10T13:03:59.073Z,7.53
2019-03-10T13:06:18.895Z,6.27
2019-03-10T13:08:39.391Z,7.77
2019-03-10T13:10:59.672Z,4.97
2019-03-10T13:13:19.916Z,7.13
2019-03-10T13:15:40.166Z,6.87
2019-03-10T13:18:01.513Z,10.50
2019-03-10T13:20:28.405Z,5.67
2019-03-10T13:22:47.022Z,8.60
2019-03-10T13:25:10.404Z,5.10
2019-03-10T13:27:30.599Z,8.60
2019-03-10T13:29:50.854Z,5.87
2019-03-10T13:32:11.096Z,5.47
2019-03-10T13:34:31.333Z,6.87
2019-03-10T13:36:51.721Z,8.67
2019-03-10T13:39:11.994Z,5.30
2019-03-10T13:41:33.976Z,5.13
2019-03-10T13:43:54.229Z,5.67
2019-03-10T13:46:14.517Z,9.97
2019-03-10T13:48:34.766Z,10.27
2019-03-10T13:50:55.044Z,7.53
2019-03-10T13:53:14.993Z,5.97
2019-03-10T13:55:35.023Z,6.97
2019-03-10T13:57:55.148Z,4.22
2019-03-10T14:00:26.797Z,6.60
2019-03-10T14:02:47.243Z,9.90
2019-03-10T14:05:08.656Z,5.17
2019-03-10T14:07:28.878Z,8.73
2019-03-10T14:09:49.386Z,6.67
2019-03-10T14:12:09.673Z,8.27
2019-03-10T14:14:29.921Z,8.23
2019-03-10T14:16:50.294Z,8.03
2019-03-10T14:19:10.677Z,5.93
2019-03-10T14:21:32.426Z,7.17
2019-03-10T14:23:53.005Z,6.00
2019-03-10T14:26:13.405Z,7.97
2019-03-10T14:28:33.714Z,4.70
2019-03-10T14:30:54.164Z,9.17
2019-03-10T14:33:14.379Z,7.33
2019-03-10T14:35:36.187Z,7.87
2019-03-10T14:37:56.669Z,6.57
2019-03-10T14:40:21.201Z,7.10
2019-03-10T14:42:41.672Z,6.93
2019-03-10T14:45:01.919Z,6.60
2019-03-10T14:47:22.531Z,6.40
2019-03-10T14:49:42.844Z,6.27
2019-03-10T14:52:03.137Z,6.73
2019-03-10T14:54:23.461Z,8.33
2019-03-10T14:56:45.238Z,8.60
2019-03-10T14:59:05.591Z,6.97
2019-03-10T15:01:26.945Z,4.87
2019-03-10T15:03:49.789Z,4.73
2019-03-10T15:06:10.110Z,6.70
2019-03-10T15:08:30.018Z,6.62
2019-03-10T15:10:51.586Z,8.38
2019-03-10T15:13:11.709Z,5.30
2019-03-10T15:15:31.923Z,8.00
2019-03-10T15:17:52.186Z,6.70
2019-03-10T15:20:14.372Z,4.87
2019-03-10T15:22:34.956Z,7.55
2019-03-10T15:24:56.614Z,7.03
2019-03-10T15:27:23.347Z,8.23
2019-03-10T15:29:38.908Z,9.53
2019-03-10T15:32:00.070Z,4.90
2019-03-10T15:34:21.714Z,8.30
2019-03-10T15:36:43.801Z,7.57
2019-03-10T15:39:05.868Z,4.90
2019-03-10T15:43:46.126Z,7.62
2019-03-10T15:46:06.416Z,7.27
2019-03-10T15:48:26.627Z,6.73
2019-03-10T15:50:46.936Z,6.97
2019-03-10T15:53:07.349Z,5.90
2019-03-10T15:55:27.622Z,6.40
2019-03-10T15:57:50.470Z,5.43
2019-03-10T16:00:12.877Z,7.73
2019-03-10T16:02:32.964Z,6.25
2019-03-10T16:04:53.128Z,6.42
2019-03-10T16:07:16.243Z,6.10
2019-03-10T16:09:38.984Z,4.53
2019-03-10T16:11:59.237Z,7.85
2019-03-10T16:14:19.382Z,6.78
2019-03-10T16:16:39.382Z,7.70
2019-03-10T16:18:59.359Z,4.62
2019-03-10T16:21:19.347Z,10.45
2019-03-10T16:23:39.380Z,6.35
2019-03-10T16:25:59.364Z,6.62
2019-03-10T16:28:19.679Z,5.63
2019-03-10T16:30:39.978Z,7.23
2019-03-10T16:33:01.262Z,6.33
2019-03-10T16:35:22.479Z,8.17
2019-03-10T16:37:43.383Z,5.15
2019-03-10T16:40:05.595Z,8.95
2019-03-10T16:42:25.962Z,6.53
2019-03-10T16:44:46.050Z,7.65
2019-03-10T16:47:09.115Z,8.38
2019-03-10T16:51:48.464Z,5.03
2019-03-10T16:54:08.684Z,7.23
2019-03-10T16:56:32.072Z,9.30
2019-03-10T16:58:52.594Z,4.67
2019-03-10T17:01:12.834Z,6.80
2019-03-10T17:03:33.432Z,5.17
2019-03-10T17:05:54.083Z,6.03
2019-03-10T17:08:15.870Z,8.03
2019-03-10T17:10:35.831Z,6.50
2019-03-10T17:12:56.515Z,6.33
2019-03-10T17:15:21.525Z,9.28
2019-03-10T17:17:42.407Z,5.42
2019-03-10T17:20:02.511Z,4.83
2019-03-10T17:22:25.154Z,7.93
2019-03-10T17:24:48.501Z,7.47
2019-03-10T17:27:08.413Z,7.33
2019-03-10T17:29:28.466Z,6.60
2019-03-10T17:31:49.200Z,6.08
2019-03-10T17:34:09.417Z,5.17
2019-03-10T17:36:29.390Z,9.63
2019-03-10T17:38:50.522Z,7.42
2019-03-10T17:41:10.586Z,5.67
2019-03-10T17:43:30.543Z,6.90
2019-03-10T17:45:50.521Z,7.95
2019-03-10T17:48:13.003Z,9.90
2019-03-10T17:50:32.664Z,8.27
2019-03-10T17:52:53.101Z,7.43
2019-03-10T17:55:17.779Z,6.70
2019-03-10T17:57:39.854Z,11.63
2019-03-10T18:00:00.404Z,6.95
2019-03-10T18:02:20.931Z,8.60
2019-03-10T18:04:40.960Z,8.10
2019-03-10T18:07:01.522Z,9.73
2019-03-10T18:09:23.040Z,10.78
2019-03-10T18:11:43.748Z,6.92
2019-03-10T18:14:03.744Z,12.33
2019-03-10T18:16:24.843Z,6.20
2019-03-10T18:18:46.482Z,11.43
2019-03-10T18:21:06.458Z,13.28
2019-03-10T18:23:31.137Z,10.98
2019-03-10T18:25:51.279Z,10.38
2019-03-10T18:28:11.399Z,10.50
2019-03-10T18:30:31.933Z,11.53
2019-03-10T18:32:52.486Z,9.95
2019-03-10T18:35:12.703Z,10.58
2019-03-10T18:37:34.242Z,8.50
2019-03-10T18:39:54.268Z,16.07
2019-03-10T18:42:16.650Z,6.20
2019-03-10T18:44:37.819Z,8.20
2019-03-10T18:46:58.428Z,5.90
2019-03-10T18:49:19.114Z,13.10
2019-03-10T18:51:41.134Z,9.63
2019-03-10T18:54:03.400Z,9.13
2019-03-10T18:56:23.861Z,9.13
2019-03-10T18:58:44.579Z,9.13
2019-03-10T19:01:06.681Z,9.20
2019-03-10T19:03:26.632Z,12.95
2019-03-10T19:05:49.176Z,10.08
2019-03-10T19:08:09.353Z,9.57
2019-03-10T19:10:30.036Z,13.35
2019-03-10T19:12:52.130Z,13.48
2019-03-10T19:15:16.259Z,9.98
2019-03-10T19:17:36.814Z,15.38
2019-03-10T19:19:57.440Z,10.10
2019-03-10T19:22:18.180Z,13.38
2019-03-10T19:24:39.238Z,12.28
2019-03-10T19:26:59.855Z,8.28
2019-03-10T19:29:20.335Z,7.30
2019-03-10T19:31:40.934Z,12.15
2019-03-10T19:34:01.509Z,15.63
2019-03-10T19:36:22.088Z,11.95
2019-03-10T19:38:42.555Z,15.85
2019-03-10T19:41:03.198Z,8.15
2019-03-10T19:43:24.785Z,8.95
2019-03-10T19:45:46.436Z,9.35
2019-03-10T19:48:07.181Z,8.65
2019-03-10T19:50:28.760Z,17.98
2019-03-10T19:52:49.856Z,8.33
2019-03-10T19:55:12.990Z,7.78
2019-03-10T19:57:33.117Z,12.15
2019-03-10T19:59:53.758Z,9.30
2019-03-10T20:02:14.462Z,11.73
2019-03-10T20:04:34.343Z,14.63
2019-03-10T20:06:54.921Z,12.10
2019-03-10T20:09:15.567Z,9.43
2019-03-10T20:11:36.143Z,10.40
2019-03-10T20:13:56.758Z,7.37
2019-03-10T20:16:17.332Z,7.47
2019-03-10T20:18:38.030Z,12.05
2019-03-10T20:20:58.705Z,12.55
2019-03-10T20:23:19.501Z,16.75
2019-03-10T20:25:41.170Z,11.25
2019-03-10T20:28:01.804Z,12.37
2019-03-10T20:30:26.569Z,11.35
2019-03-10T20:32:47.367Z,8.95
2019-03-10T20:35:13.006Z,13.48
2019-03-10T20:37:33.520Z,12.20
2019-03-10T20:39:56.021Z,11.90
2019-03-10T20:42:16.765Z,13.50
2019-03-10T20:44:37.672Z,16.50
2019-03-10T20:46:58.357Z,13.83
2019-03-10T20:49:19.121Z,17.92
2019-03-10T20:51:41.456Z,13.22
2019-03-10T20:54:02.236Z,16.12
2019-03-10T20:56:24.118Z,13.88
2019-03-10T20:58:44.838Z,12.07
2019-03-10T21:01:05.506Z,12.47
2019-03-10T21:03:26.518Z,13.65
2019-03-10T21:05:47.077Z,14.23
2019-03-10T21:08:07.784Z,11.40
2019-03-10T21:10:28.584Z,17.67
2019-03-10T21:12:49.263Z,17.37
2019-03-10T21:15:14.733Z,14.70
2019-03-10T21:17:35.033Z,9.73
2019-03-10T21:19:56.834Z,14.15
2019-03-10T21:22:17.439Z,14.65
2019-03-10T21:24:39.560Z,12.88
2019-03-10T21:27:00.722Z,11.30
2019-03-10T21:29:21.335Z,15.93
2019-03-10T21:31:42.128Z,13.98
2019-03-10T21:34:02.760Z,15.88
2019-03-10T21:36:23.395Z,16.20
2019-03-10T21:38:44.100Z,16.93
2019-03-10T21:41:13.720Z,14.73
2019-03-10T21:43:27.663Z,11.38
2019-03-10T21:45:48.350Z,11.97
2019-03-10T21:48:08.906Z,16.17
2019-03-10T21:50:29.734Z,15.45
2019-03-10T21:52:52.142Z,15.32
2019-03-10T21:55:15.495Z,15.88
2019-03-10T21:57:36.248Z,13.90
2019-03-10T21:59:56.977Z,11.75
2019-03-10T22:02:17.513Z,14.98
2019-03-10T22:04:38.213Z,13.50
2019-03-10T22:06:58.825Z,14.65
2019-03-10T22:09:19.404Z,12.43
2019-03-10T22:11:41.747Z,19.52
2019-03-10T22:14:02.323Z,14.75
2019-03-10T22:16:23.816Z,11.80
2019-03-10T22:18:45.522Z,17.25
2019-03-10T22:21:06.118Z,14.25
2019-03-10T22:23:27.893Z,13.25
2019-03-10T22:25:49.552Z,14.40
2019-03-10T22:28:10.144Z,13.45
2019-03-10T22:30:30.804Z,13.28
2019-03-10T22:32:51.470Z,11.68
2019-03-10T22:35:12.111Z,16.70
2019-03-10T22:37:32.671Z,14.07
2019-03-10T22:39:53.294Z,15.05
2019-03-10T22:42:14.001Z,14.45
2019-03-10T22:44:35.009Z,13.93
2019-03-10T22:46:55.785Z,12.55
2019-03-10T22:49:16.345Z,12.10
2019-03-10T22:51:36.908Z,15.58
2019-03-10T22:53:58.528Z,16.65
2019-03-10T22:56:19.053Z,10.72
2019-03-10T22:58:39.516Z,6.83
2019-03-10T23:01:01.817Z,5.65
2019-03-10T23:03:22.884Z,5.20
2019-03-10T23:05:43.552Z,2.02
2019-03-10T23:08:04.116Z,1.07
2019-03-10T23:10:24.614Z,6.47
2019-03-10T23:12:45.143Z,2.77
2019-03-10T23:15:09.608Z,2.92
2019-03-10T23:17:30.041Z,8.30
2019-03-10T23:19:51.569Z,1.25
2019-03-10T23:22:12.088Z,3.52
2019-03-10T23:24:32.523Z,1.45
2019-03-10T23:26:53.063Z,2.90
2019-03-10T23:29:13.607Z,2.45
2019-03-10T23:31:35.677Z,1.67
2019-03-10T23:33:56.145Z,1.22
2019-03-10T23:36:16.889Z,1.00
2019-03-10T23:38:37.473Z,3.62
2019-03-10T23:40:58.850Z,3.08
2019-03-10T23:43:19.426Z,2.08
2019-03-10T23:45:40.090Z,4.00
2019-03-10T23:48:00.726Z,3.22
2019-03-10T23:50:22.884Z,4.15
2019-03-10T23:52:43.461Z,4.97
2019-03-10T23:55:05.151Z,3.08
2019-03-10T23:57:25.739Z,3.55
2019-03-10T23:59:46.179Z,2.12
